sensor_id;sensor_type;location;lat;lon;timestamp;pressure;altitude;pressure_sealevel;temperature;humidity
59043;BME280;44826;51.596;5.624;2023-05-07T00:01:14;101509.59;;;13.68;95.86
59043;BME280;44826;51.596;5.624;2023-05-07T00:03:40;101514.00;;;13.68;96.33
59043;BME280;44826;51.596;5.624;2023-05-07T00:06:05;101514.84;;;13.68;96.35
59043;BME280;44826;51.596;5.624;2023-05-07T00:08:30;101513.94;;;13.69;96.60
59043;BME280;44826;51.596;5.624;2023-05-07T00:10:56;101510.47;;;13.69;96.57
59043;BME280;44826;51.596;5.624;2023-05-07T00:13:21;101517.44;;;13.68;95.97
59043;BME280;44826;51.596;5.624;2023-05-07T00:15:46;101513.13;;;13.67;95.89
59043;BME280;44826;51.596;5.624;2023-05-07T00:18:12;101514.94;;;13.65;95.98
59043;BME280;44826;51.596;5.624;2023-05-07T00:20:37;101509.78;;;13.62;96.13
59043;BME280;44826;51.596;5.624;2023-05-07T00:23:02;101508.16;;;13.58;96.05
59043;BME280;44826;51.596;5.624;2023-05-07T00:25:28;101507.34;;;13.56;96.21
59043;BME280;44826;51.596;5.624;2023-05-07T00:27:53;101507.34;;;13.56;95.82
59043;BME280;44826;51.596;5.624;2023-05-07T00:30:18;101497.75;;;13.56;96.01
59043;BME280;44826;51.596;5.624;2023-05-07T00:32:43;101495.16;;;13.55;96.28
59043;BME280;44826;51.596;5.624;2023-05-07T00:35:11;101499.56;;;13.53;96.45
59043;BME280;44826;51.596;5.624;2023-05-07T00:37:36;101496.97;;;13.53;96.46
59043;BME280;44826;51.596;5.624;2023-05-07T00:40:01;101493.50;;;13.52;96.74
59043;BME280;44826;51.596;5.624;2023-05-07T00:42:29;101494.34;;;13.53;97.03
59043;BME280;44826;51.596;5.624;2023-05-07T00:44:57;101487.41;;;13.51;96.96
59043;BME280;44826;51.596;5.624;2023-05-07T00:47:22;101485.66;;;13.52;96.72
59043;BME280;44826;51.596;5.624;2023-05-07T00:49:48;101484.84;;;13.50;96.50
59043;BME280;44826;51.596;5.624;2023-05-07T00:52:15;101471.81;;;13.48;96.33
59043;BME280;44826;51.596;5.624;2023-05-07T00:54:42;101474.47;;;13.47;96.45
59043;BME280;44826;51.596;5.624;2023-05-07T00:57:09;101476.25;;;13.46;96.63
59043;BME280;44826;51.596;5.624;2023-05-07T00:59:35;101480.66;;;13.44;97.17
59043;BME280;44826;51.596;5.624;2023-05-07T01:02:00;101478.88;;;13.45;96.90
59043;BME280;44826;51.596;5.624;2023-05-07T01:04:26;101480.66;;;13.44;96.86
59043;BME280;44826;51.596;5.624;2023-05-07T01:06:53;101476.31;;;13.43;97.13
59043;BME280;44826;51.596;5.624;2023-05-07T01:09:20;101478.94;;;13.43;97.31
59043;BME280;44826;51.596;5.624;2023-05-07T01:11:47;101480.66;;;13.43;97.59
59043;BME280;44826;51.596;5.624;2023-05-07T01:14:12;101477.22;;;13.42;97.47
59043;BME280;44826;51.596;5.624;2023-05-07T01:16:38;101471.94;;;13.44;96.91
59043;BME280;44826;51.596;5.624;2023-05-07T01:19:05;101473.69;;;13.43;97.16
59043;BME280;44826;51.596;5.624;2023-05-07T01:21:33;101475.41;;;13.44;97.20
59043;BME280;44826;51.596;5.624;2023-05-07T01:23:58;101467.59;;;13.43;97.15
59043;BME280;44826;51.596;5.624;2023-05-07T01:26:24;101472.81;;;13.44;97.25
59043;BME280;44826;51.596;5.624;2023-05-07T01:28:49;101482.38;;;13.44;96.92
59043;BME280;44826;51.596;5.624;2023-05-07T01:31:16;101473.69;;;13.43;97.30
59043;BME280;44826;51.596;5.624;2023-05-07T01:33:43;101473.69;;;13.43;97.43
59043;BME280;44826;51.596;5.624;2023-05-07T01:36:11;101479.81;;;13.42;97.89
59043;BME280;44826;51.596;5.624;2023-05-07T01:38:37;101472.00;;;13.42;97.72
59043;BME280;44826;51.596;5.624;2023-05-07T01:41:03;101466.75;;;13.42;97.79
59043;BME280;44826;51.596;5.624;2023-05-07T01:43:29;101466.75;;;13.42;97.60
59043;BME280;44826;51.596;5.624;2023-05-07T01:45:55;101455.44;;;13.42;97.62
59043;BME280;44826;51.596;5.624;2023-05-07T01:48:22;101458.91;;;13.42;97.58
59043;BME280;44826;51.596;5.624;2023-05-07T01:50:48;101455.44;;;13.42;97.56
59043;BME280;44826;51.596;5.624;2023-05-07T01:53:14;101451.06;;;13.42;97.54
59043;BME280;44826;51.596;5.624;2023-05-07T01:55:40;101455.41;;;13.43;97.48
59043;BME280;44826;51.596;5.624;2023-05-07T01:58:05;101458.97;;;13.41;97.67
59043;BME280;44826;51.596;5.624;2023-05-07T02:00:31;101460.66;;;13.42;97.77
59043;BME280;44826;51.596;5.624;2023-05-07T02:02:57;101454.59;;;13.41;98.11
59043;BME280;44826;51.596;5.624;2023-05-07T02:05:23;101451.97;;;13.41;97.55
59043;BME280;44826;51.596;5.624;2023-05-07T02:07:48;101451.97;;;13.41;97.58
59043;BME280;44826;51.596;5.624;2023-05-07T02:10:13;101451.97;;;13.41;97.63
59043;BME280;44826;51.596;5.624;2023-05-07T02:12:39;101452.00;;;13.40;97.56
59043;BME280;44826;51.596;5.624;2023-05-07T02:15:05;101453.75;;;13.41;97.65
59043;BME280;44826;51.596;5.624;2023-05-07T02:17:30;101445.91;;;13.39;97.72
59043;BME280;44826;51.596;5.624;2023-05-07T02:19:58;101447.66;;;13.40;97.94
59043;BME280;44826;51.596;5.624;2023-05-07T02:22:23;101456.34;;;13.39;98.10
59043;BME280;44826;51.596;5.624;2023-05-07T02:24:48;101447.66;;;13.40;98.16
59043;BME280;44826;51.596;5.624;2023-05-07T02:27:14;101445.06;;;13.39;97.75
59043;BME280;44826;51.596;5.624;2023-05-07T02:29:39;101441.63;;;13.36;97.84
59043;BME280;44826;51.596;5.624;2023-05-07T02:32:04;101442.47;;;13.37;98.19
59043;BME280;44826;51.596;5.624;2023-05-07T02:34:30;101449.50;;;13.35;97.92
59043;BME280;44826;51.596;5.624;2023-05-07T02:36:55;101450.38;;;13.35;98.17
59043;BME280;44826;51.596;5.624;2023-05-07T02:39:20;101439.91;;;13.35;98.58
59043;BME280;44826;51.596;5.624;2023-05-07T02:41:46;101447.75;;;13.35;98.25
59043;BME280;44826;51.596;5.624;2023-05-07T02:44:11;101452.09;;;13.35;98.20
59043;BME280;44826;51.596;5.624;2023-05-07T02:46:36;101454.78;;;13.33;98.47
59043;BME280;44826;51.596;5.624;2023-05-07T02:49:01;101453.00;;;13.34;98.48
59043;BME280;44826;51.596;5.624;2023-05-07T02:51:27;101454.72;;;13.35;98.73
59043;BME280;44826;51.596;5.624;2023-05-07T02:53:52;101459.94;;;13.35;98.27
59043;BME280;44826;51.596;5.624;2023-05-07T02:56:17;101459.94;;;13.35;98.43
59043;BME280;44826;51.596;5.624;2023-05-07T02:58:43;101448.66;;;13.33;98.11
59043;BME280;44826;51.596;5.624;2023-05-07T03:01:08;101446.06;;;13.33;98.42
59043;BME280;44826;51.596;5.624;2023-05-07T03:03:34;101447.88;;;13.31;98.72
59043;BME280;44826;51.596;5.624;2023-05-07T03:06:00;101454.81;;;13.32;98.89
59043;BME280;44826;51.596;5.624;2023-05-07T03:08:25;101456.56;;;13.31;98.74
59043;BME280;44826;51.596;5.624;2023-05-07T03:10:51;101455.72;;;13.31;98.81
59043;BME280;44826;51.596;5.624;2023-05-07T03:13:16;101453.94;;;13.31;99.11
59043;BME280;44826;51.596;5.624;2023-05-07T03:15:42;101454.84;;;13.30;98.88
59043;BME280;44826;51.596;5.624;2023-05-07T03:18:07;101458.34;;;13.31;99.61
59043;BME280;44826;51.596;5.624;2023-05-07T03:20:32;101453.09;;;13.31;99.49
59043;BME280;44826;51.596;5.624;2023-05-07T03:22:58;101453.06;;;13.32;99.30
59043;BME280;44826;51.596;5.624;2023-05-07T03:25:23;101453.09;;;13.31;99.52
59043;BME280;44826;51.596;5.624;2023-05-07T03:27:48;101458.28;;;13.32;99.38
59043;BME280;44826;51.596;5.624;2023-05-07T03:30:14;101447.88;;;13.31;99.51
59043;BME280;44826;51.596;5.624;2023-05-07T03:32:39;101449.59;;;13.32;99.40
59043;BME280;44826;51.596;5.624;2023-05-07T03:35:05;101450.50;;;13.31;99.10
59043;BME280;44826;51.596;5.624;2023-05-07T03:37:30;101449.69;;;13.29;99.13
59043;BME280;44826;51.596;5.624;2023-05-07T03:39:56;101439.22;;;13.29;98.81
59043;BME280;44826;51.596;5.624;2023-05-07T03:42:21;101440.13;;;13.28;98.93
59043;BME280;44826;51.596;5.624;2023-05-07T03:44:46;101437.50;;;13.28;99.09
59043;BME280;44826;51.596;5.624;2023-05-07T03:47:12;101443.63;;;13.27;99.19
59043;BME280;44826;51.596;5.624;2023-05-07T03:49:38;101440.19;;;13.25;99.09
59043;BME280;44826;51.596;5.624;2023-05-07T03:52:04;101437.59;;;13.25;99.25
59043;BME280;44826;51.596;5.624;2023-05-07T03:54:30;101441.91;;;13.26;99.16
59043;BME280;44826;51.596;5.624;2023-05-07T03:56:55;101436.78;;;13.23;99.28
59043;BME280;44826;51.596;5.624;2023-05-07T03:59:21;101441.09;;;13.24;99.51
59043;BME280;44826;51.596;5.624;2023-05-07T04:01:47;101447.22;;;13.23;99.24
59043;BME280;44826;51.596;5.624;2023-05-07T04:04:13;101446.31;;;13.24;99.49
59043;BME280;44826;51.596;5.624;2023-05-07T04:06:39;101451.53;;;13.24;99.55
59043;BME280;44826;51.596;5.624;2023-05-07T04:09:04;101457.63;;;13.24;99.38
59043;BME280;44826;51.596;5.624;2023-05-07T04:11:29;101461.94;;;13.25;99.56
59043;BME280;44826;51.596;5.624;2023-05-07T04:13:54;101459.34;;;13.25;99.46
59043;BME280;44826;51.596;5.624;2023-05-07T04:16:20;101464.53;;;13.27;99.41
59043;BME280;44826;51.596;5.624;2023-05-07T04:18:45;101462.81;;;13.26;99.32
59043;BME280;44826;51.596;5.624;2023-05-07T04:21:17;101461.91;;;13.27;99.73
59043;BME280;44826;51.596;5.624;2023-05-07T04:23:43;101466.28;;;13.26;99.73
59043;BME280;44826;51.596;5.624;2023-05-07T04:26:08;101471.47;;;13.28;99.89
59043;BME280;44826;51.596;5.624;2023-05-07T04:28:34;101471.47;;;13.28;99.78
59043;BME280;44826;51.596;5.624;2023-05-07T04:30:59;101473.19;;;13.29;99.64
59043;BME280;44826;51.596;5.624;2023-05-07T04:33:25;101472.28;;;13.30;99.76
59043;BME280;44826;51.596;5.624;2023-05-07T04:35:50;101471.41;;;13.29;99.67
59043;BME280;44826;51.596;5.624;2023-05-07T04:38:15;101473.13;;;13.30;99.95
59043;BME280;44826;51.596;5.624;2023-05-07T04:40:41;101474.00;;;13.31;100.00
59043;BME280;44826;51.596;5.624;2023-05-07T04:43:07;101470.53;;;13.30;100.00
59043;BME280;44826;51.596;5.624;2023-05-07T04:45:34;101468.78;;;13.31;100.00
59043;BME280;44826;51.596;5.624;2023-05-07T04:48:00;101474.00;;;13.31;100.00
59043;BME280;44826;51.596;5.624;2023-05-07T04:50:25;101470.50;;;13.32;100.00
59043;BME280;44826;51.596;5.624;2023-05-07T04:52:50;101467.88;;;13.32;99.80
59043;BME280;44826;51.596;5.624;2023-05-07T04:55:16;101470.50;;;13.32;100.00
59043;BME280;44826;51.596;5.624;2023-05-07T04:57:41;101477.41;;;13.33;100.00
59043;BME280;44826;51.596;5.624;2023-05-07T05:00:07;101475.63;;;13.35;100.00
59043;BME280;44826;51.596;5.624;2023-05-07T05:02:36;101479.09;;;13.35;99.94
59043;BME280;44826;51.596;5.624;2023-05-07T05:05:01;101480.78;;;13.38;100.00
59043;BME280;44826;51.596;5.624;2023-05-07T05:07:27;101480.78;;;13.38;100.00
59043;BME280;44826;51.596;5.624;2023-05-07T05:09:53;101481.63;;;13.40;100.00
59043;BME280;44826;51.596;5.624;2023-05-07T05:12:18;101483.34;;;13.41;99.95
59043;BME280;44826;51.596;5.624;2023-05-07T05:14:44;101478.94;;;13.42;100.00
59043;BME280;44826;51.596;5.624;2023-05-07T05:17:09;101488.50;;;13.44;100.00
59043;BME280;44826;51.596;5.624;2023-05-07T05:19:35;101489.31;;;13.46;99.99
59043;BME280;44826;51.596;5.624;2023-05-07T05:22:00;101484.84;;;13.50;100.00
59043;BME280;44826;51.596;5.624;2023-05-07T05:24:26;101495.28;;;13.50;100.00
59043;BME280;44826;51.596;5.624;2023-05-07T05:26:53;101496.06;;;13.54;100.00
59043;BME280;44826;51.596;5.624;2023-05-07T05:29:18;101498.59;;;13.57;100.00
59043;BME280;44826;51.596;5.624;2023-05-07T05:31:43;101501.97;;;13.60;100.00
59043;BME280;44826;51.596;5.624;2023-05-07T05:34:08;101501.06;;;13.63;100.00
59043;BME280;44826;51.596;5.624;2023-05-07T05:36:34;101506.97;;;13.68;100.00
59043;BME280;44826;51.596;5.624;2023-05-07T05:38:59;101509.53;;;13.71;99.98
59043;BME280;44826;51.596;5.624;2023-05-07T05:41:24;101512.94;;;13.75;100.00
59043;BME280;44826;51.596;5.624;2023-05-07T05:43:50;101516.31;;;13.78;100.00
59043;BME280;44826;51.596;5.624;2023-05-07T05:46:15;101512.72;;;13.83;100.00
59043;BME280;44826;51.596;5.624;2023-05-07T05:48:40;101512.59;;;13.86;99.82
59043;BME280;44826;51.596;5.624;2023-05-07T05:51:06;101512.59;;;13.86;99.43
59043;BME280;44826;51.596;5.624;2023-05-07T05:53:31;101511.75;;;13.85;99.56
59043;BME280;44826;51.596;5.624;2023-05-07T05:55:56;101516.94;;;13.87;99.53
59043;BME280;44826;51.596;5.624;2023-05-07T05:58:21;101512.50;;;13.89;99.67
59043;BME280;44826;51.596;5.624;2023-05-07T06:00:47;101514.16;;;13.93;99.59
59043;BME280;44826;51.596;5.624;2023-05-07T06:03:13;101517.56;;;13.95;99.64
59043;BME280;44826;51.596;5.624;2023-05-07T06:05:38;101511.38;;;13.99;99.59
59043;BME280;44826;51.596;5.624;2023-05-07T06:08:04;101512.16;;;14.01;99.70
59043;BME280;44826;51.596;5.624;2023-05-07T06:10:29;101509.44;;;14.04;99.71
59043;BME280;44826;51.596;5.624;2023-05-07T06:12:55;101513.69;;;14.08;99.64
59043;BME280;44826;51.596;5.624;2023-05-07T06:15:21;101512.78;;;14.09;99.50
59043;BME280;44826;51.596;5.624;2023-05-07T06:17:46;101511.88;;;14.10;99.24
59043;BME280;44826;51.596;5.624;2023-05-07T06:20:11;101507.41;;;14.14;99.14
59043;BME280;44826;51.596;5.624;2023-05-07T06:22:36;101513.47;;;14.16;99.20
59043;BME280;44826;51.596;5.624;2023-05-07T06:25:02;101513.38;;;14.19;99.33
59043;BME280;44826;51.596;5.624;2023-05-07T06:27:27;101515.03;;;14.22;99.13
59043;BME280;44826;51.596;5.624;2023-05-07T06:29:53;101516.66;;;14.26;99.24
59043;BME280;44826;51.596;5.624;2023-05-07T06:32:18;101513.97;;;14.29;99.10
59043;BME280;44826;51.596;5.624;2023-05-07T06:34:43;101514.69;;;14.34;99.19
59043;BME280;44826;51.596;5.624;2023-05-07T06:37:09;101519.78;;;14.37;98.98
59043;BME280;44826;51.596;5.624;2023-05-07T06:39:34;101510.94;;;14.41;98.96
59043;BME280;44826;51.596;5.624;2023-05-07T06:42:00;101519.53;;;14.47;98.85
59043;BME280;44826;51.596;5.624;2023-05-07T06:44:27;101519.44;;;14.50;98.45
59043;BME280;44826;51.596;5.624;2023-05-07T06:46:52;101527.13;;;14.54;98.41
59043;BME280;44826;51.596;5.624;2023-05-07T06:49:17;101526.25;;;14.55;97.52
59043;BME280;44826;51.596;5.624;2023-05-07T06:51:43;101528.75;;;14.59;97.90
59043;BME280;44826;51.596;5.624;2023-05-07T06:54:08;101529.50;;;14.62;97.72
59043;BME280;44826;51.596;5.624;2023-05-07T06:56:33;101531.97;;;14.67;98.25
59043;BME280;44826;51.596;5.624;2023-05-07T06:59:00;101532.75;;;14.70;98.01
59043;BME280;44826;51.596;5.624;2023-05-07T07:01:25;101533.56;;;14.72;98.22
59043;BME280;44826;51.596;5.624;2023-05-07T07:03:50;101537.91;;;14.74;97.81
59043;BME280;44826;51.596;5.624;2023-05-07T07:06:16;101531.81;;;14.73;97.11
59043;BME280;44826;51.596;5.624;2023-05-07T07:08:41;101535.34;;;14.72;97.21
59043;BME280;44826;51.596;5.624;2023-05-07T07:11:08;101538.78;;;14.74;97.16
59043;BME280;44826;51.596;5.624;2023-05-07T07:13:33;101542.34;;;14.71;96.60
59043;BME280;44826;51.596;5.624;2023-05-07T07:15:59;101543.16;;;14.74;96.86
59043;BME280;44826;51.596;5.624;2023-05-07T07:18:25;101542.22;;;14.76;96.94
59043;BME280;44826;51.596;5.624;2023-05-07T07:20:50;101543.00;;;14.78;96.04
59043;BME280;44826;51.596;5.624;2023-05-07T07:23:15;101546.47;;;14.79;96.40
59043;BME280;44826;51.596;5.624;2023-05-07T07:25:40;101549.03;;;14.80;96.54
59043;BME280;44826;51.596;5.624;2023-05-07T07:28:06;101549.03;;;14.80;96.52
59043;BME280;44826;51.596;5.624;2023-05-07T07:30:31;101546.41;;;14.80;96.31
59043;BME280;44826;51.596;5.624;2023-05-07T07:32:56;101553.34;;;14.83;96.38
59043;BME280;44826;51.596;5.624;2023-05-07T07:35:27;101542.81;;;14.84;96.37
59043;BME280;44826;51.596;5.624;2023-05-07T07:37:53;101553.22;;;14.86;95.77
59043;BME280;44826;51.596;5.624;2023-05-07T07:40:18;101548.78;;;14.88;95.68
59043;BME280;44826;51.596;5.624;2023-05-07T07:42:43;101548.75;;;14.90;96.35
59043;BME280;44826;51.596;5.624;2023-05-07T07:45:09;101553.84;;;14.94;96.41
59043;BME280;44826;51.596;5.624;2023-05-07T07:47:34;101551.97;;;14.98;95.95
59043;BME280;44826;51.596;5.624;2023-05-07T07:49:59;101550.16;;;15.00;95.88
59043;BME280;44826;51.596;5.624;2023-05-07T07:52:24;101550.13;;;15.01;95.69
59043;BME280;44826;51.596;5.624;2023-05-07T07:54:50;101554.34;;;15.06;95.55
59043;BME280;44826;51.596;5.624;2023-05-07T07:57:15;101555.97;;;15.10;96.12
59043;BME280;44826;51.596;5.624;2023-05-07T07:59:40;101554.03;;;15.15;95.43
59043;BME280;44826;51.596;5.624;2023-05-07T08:02:08;101554.72;;;15.20;95.36
59043;BME280;44826;51.596;5.624;2023-05-07T08:04:33;101555.44;;;15.25;94.87
59043;BME280;44826;51.596;5.624;2023-05-07T08:06:58;101556.03;;;15.33;95.05
59043;BME280;44826;51.596;5.624;2023-05-07T08:09:23;101561.88;;;15.42;94.85
59043;BME280;44826;51.596;5.624;2023-05-07T08:11:49;101565.03;;;15.52;95.10
59043;BME280;44826;51.596;5.624;2023-05-07T08:14:14;101565.50;;;15.63;94.34
59043;BME280;44826;51.596;5.624;2023-05-07T08:16:41;101558.16;;;15.73;94.29
59043;BME280;44826;51.596;5.624;2023-05-07T08:19:06;101560.50;;;15.81;93.25
59043;BME280;44826;51.596;5.624;2023-05-07T08:21:31;101558.59;;;15.86;93.05
59043;BME280;44826;51.596;5.624;2023-05-07T08:23:57;101559.13;;;15.96;93.23
59043;BME280;44826;51.596;5.624;2023-05-07T08:26:22;101566.78;;;16.02;92.84
59043;BME280;44826;51.596;5.624;2023-05-07T08:28:48;101570.06;;;16.07;92.68
59043;BME280;44826;51.596;5.624;2023-05-07T08:31:13;101574.25;;;16.13;92.77
59043;BME280;44826;51.596;5.624;2023-05-07T08:33:38;101571.47;;;16.17;91.84
59043;BME280;44826;51.596;5.624;2023-05-07T08:36:04;101578.31;;;16.21;91.52
59043;BME280;44826;51.596;5.624;2023-05-07T08:38:29;101573.78;;;16.25;91.08
59043;BME280;44826;51.596;5.624;2023-05-07T08:40:55;101580.66;;;16.29;91.99
59043;BME280;44826;51.596;5.624;2023-05-07T08:43:21;101573.50;;;16.33;91.06
59043;BME280;44826;51.596;5.624;2023-05-07T08:45:49;101576.84;;;16.36;91.01
59043;BME280;44826;51.596;5.624;2023-05-07T08:48:20;101569.84;;;16.37;89.58
59043;BME280;44826;51.596;5.624;2023-05-07T08:50:47;101571.50;;;16.39;90.29
59043;BME280;44826;51.596;5.624;2023-05-07T08:53:13;101575.72;;;16.44;90.88
59043;BME280;44826;51.596;5.624;2023-05-07T08:55:41;101572.91;;;16.48;90.83
59043;BME280;44826;51.596;5.624;2023-05-07T08:58:06;101576.16;;;16.55;90.51
59043;BME280;44826;51.596;5.624;2023-05-07T09:00:32;101575.81;;;16.64;91.99
59043;BME280;44826;51.596;5.624;2023-05-07T09:02:57;101576.25;;;16.74;91.07
59043;BME280;44826;51.596;5.624;2023-05-07T09:05:22;101577.75;;;16.81;90.35
59043;BME280;44826;51.596;5.624;2023-05-07T09:07:47;101579.34;;;16.86;88.76
59043;BME280;44826;51.596;5.624;2023-05-07T09:10:13;101585.28;;;16.91;88.18
59043;BME280;44826;51.596;5.624;2023-05-07T09:12:39;101581.59;;;16.95;87.48
59043;BME280;44826;51.596;5.624;2023-05-07T09:15:05;101584.84;;;17.02;87.17
59043;BME280;44826;51.596;5.624;2023-05-07T09:17:31;101580.19;;;17.08;88.55
59043;BME280;44826;51.596;5.624;2023-05-07T09:19:56;101578.09;;;17.17;88.01
59043;BME280;44826;51.596;5.624;2023-05-07T09:22:26;101579.69;;;17.21;85.59
59043;BME280;44826;51.596;5.624;2023-05-07T09:24:51;101577.69;;;17.26;85.67
59043;BME280;44826;51.596;5.624;2023-05-07T09:27:17;101583.69;;;17.29;83.89
59043;BME280;44826;51.596;5.624;2023-05-07T09:29:43;101569.34;;;17.37;86.19
59043;BME280;44826;51.596;5.624;2023-05-07T09:32:08;101577.78;;;17.45;86.07
59043;BME280;44826;51.596;5.624;2023-05-07T09:34:35;101576.66;;;17.51;84.95
59043;BME280;44826;51.596;5.624;2023-05-07T09:37:01;101569.56;;;17.53;84.55
59043;BME280;44826;51.596;5.624;2023-05-07T09:39:38;101570.28;;;17.56;86.27
59043;BME280;44826;51.596;5.624;2023-05-07T09:42:04;101576.25;;;17.60;84.72
59043;BME280;44826;51.596;5.624;2023-05-07T09:44:31;101573.50;;;17.63;85.16
59043;BME280;44826;51.596;5.624;2023-05-07T09:46:59;101576.00;;;17.66;85.65
59043;BME280;44826;51.596;5.624;2023-05-07T09:49:29;101576.69;;;17.70;85.19
59043;BME280;44826;51.596;5.624;2023-05-07T09:51:59;101571.38;;;17.71;83.72
59043;BME280;44826;51.596;5.624;2023-05-07T09:54:25;101579.16;;;17.74;84.38
59043;BME280;44826;51.596;5.624;2023-05-07T09:56:52;101566.63;;;17.80;86.00
59043;BME280;44826;51.596;5.624;2023-05-07T09:59:18;101571.50;;;17.89;86.60
59043;BME280;44826;51.596;5.624;2023-05-07T10:01:45;101579.25;;;17.92;84.41
59043;BME280;44826;51.596;5.624;2023-05-07T10:04:11;101573.06;;;17.93;83.13
59043;BME280;44826;51.596;5.624;2023-05-07T10:06:37;101573.00;;;17.95;84.11
59043;BME280;44826;51.596;5.624;2023-05-07T10:09:03;101576.22;;;18.01;84.69
59043;BME280;44826;51.596;5.624;2023-05-07T10:11:37;101572.53;;;18.05;83.20
59043;BME280;44826;51.596;5.624;2023-05-07T10:14:03;101575.97;;;18.08;82.30
59043;BME280;44826;51.596;5.624;2023-05-07T10:16:31;101579.22;;;18.13;82.12
59043;BME280;44826;51.596;5.624;2023-05-07T10:18:58;101574.59;;;18.18;84.16
59043;BME280;44826;51.596;5.624;2023-05-07T10:21:26;101578.66;;;18.25;83.78
59043;BME280;44826;51.596;5.624;2023-05-07T10:24:01;101579.25;;;18.32;82.11
59043;BME280;44826;51.596;5.624;2023-05-07T10:26:29;101572.72;;;18.39;83.15
59043;BME280;44826;51.596;5.624;2023-05-07T10:29:01;101575.94;;;18.46;81.95
59043;BME280;44826;51.596;5.624;2023-05-07T10:34:16;101578.63;;;18.63;82.66
59043;BME280;44826;51.596;5.624;2023-05-07T10:36:44;101577.50;;;18.69;81.57
59043;BME280;44826;51.596;5.624;2023-05-07T10:39:10;101586.78;;;18.76;82.61
59043;BME280;44826;51.596;5.624;2023-05-07T10:41:35;101589.38;;;18.78;79.86
59043;BME280;44826;51.596;5.624;2023-05-07T10:44:02;101588.41;;;18.79;79.30
59043;BME280;44826;51.596;5.624;2023-05-07T10:46:27;101590.84;;;18.84;80.03
59043;BME280;44826;51.596;5.624;2023-05-07T10:51:34;101584.41;;;18.89;76.08
59043;BME280;44826;51.596;5.624;2023-05-07T10:56:37;101587.56;;;18.98;78.16
59043;BME280;44826;51.596;5.624;2023-05-07T11:01:56;101588.69;;;19.11;76.92
59043;BME280;44826;51.596;5.624;2023-05-07T11:04:23;101583.22;;;19.14;76.14
59043;BME280;44826;51.596;5.624;2023-05-07T11:15:03;101573.28;;;19.37;73.93
59043;BME280;44826;51.596;5.624;2023-05-07T11:17:29;101578.31;;;19.41;75.40
59043;BME280;44826;51.596;5.624;2023-05-07T11:19:57;101581.34;;;19.51;75.56
59043;BME280;44826;51.596;5.624;2023-05-07T11:24:59;101587.53;;;19.68;72.32
59043;BME280;44826;51.596;5.624;2023-05-07T11:27:25;101590.69;;;19.75;74.87
59043;BME280;44826;51.596;5.624;2023-05-07T11:29:51;101585.88;;;19.83;73.98
59043;BME280;44826;51.596;5.624;2023-05-07T11:32:24;101590.53;;;19.95;73.00
59043;BME280;44826;51.596;5.624;2023-05-07T11:34:54;101589.53;;;19.98;69.53
59043;BME280;44826;51.596;5.624;2023-05-07T11:37:20;101594.81;;;19.98;67.01
59043;BME280;44826;51.596;5.624;2023-05-07T11:39:46;101587.47;;;20.03;68.13
59043;BME280;44826;51.596;5.624;2023-05-07T11:42:31;101590.63;;;20.10;70.77
59043;BME280;44826;51.596;5.624;2023-05-07T11:44:57;101591.75;;;20.06;67.49
59043;BME280;44826;51.596;5.624;2023-05-07T11:47:22;101588.09;;;20.08;69.03
59043;BME280;44826;51.596;5.624;2023-05-07T11:49:50;101589.38;;;20.17;68.42
59043;BME280;44826;51.596;5.624;2023-05-07T11:52:17;101585.44;;;20.24;68.18
59043;BME280;44826;51.596;5.624;2023-05-07T11:54:49;101588.97;;;20.25;66.20
59043;BME280;44826;51.596;5.624;2023-05-07T11:57:15;101595.34;;;20.21;64.03
59043;BME280;44826;51.596;5.624;2023-05-07T11:59:40;101596.88;;;20.25;65.79
59043;BME280;44826;51.596;5.624;2023-05-07T12:02:07;101586.00;;;20.31;64.80
59043;BME280;44826;51.596;5.624;2023-05-07T12:04:32;101585.63;;;20.37;66.50
59043;BME280;44826;51.596;5.624;2023-05-07T12:06:58;101581.88;;;20.41;64.66
59043;BME280;44826;51.596;5.624;2023-05-07T12:09:23;101578.47;;;20.39;64.69
59043;BME280;44826;51.596;5.624;2023-05-07T12:11:49;101583.94;;;20.36;66.22
59043;BME280;44826;51.596;5.624;2023-05-07T12:14:14;101577.81;;;20.36;67.41
59043;BME280;44826;51.596;5.624;2023-05-07T12:16:41;101586.66;;;20.35;65.75
59043;BME280;44826;51.596;5.624;2023-05-07T12:19:08;101585.06;;;20.32;65.43
59043;BME280;44826;51.596;5.624;2023-05-07T12:21:37;101588.03;;;20.26;65.68
59043;BME280;44826;51.596;5.624;2023-05-07T12:24:03;101582.81;;;20.24;65.78
59043;BME280;44826;51.596;5.624;2023-05-07T12:26:28;101586.47;;;20.22;67.14
59043;BME280;44826;51.596;5.624;2023-05-07T12:28:53;101585.66;;;20.21;67.00
59043;BME280;44826;51.596;5.624;2023-05-07T12:31:19;101588.34;;;20.20;66.62
59043;BME280;44826;51.596;5.624;2023-05-07T12:33:45;101595.50;;;20.17;67.88
59043;BME280;44826;51.596;5.624;2023-05-07T12:36:12;101595.16;;;20.08;65.89
59043;BME280;44826;51.596;5.624;2023-05-07T12:38:38;101596.69;;;19.96;66.82
59043;BME280;44826;51.596;5.624;2023-05-07T12:41:04;101593.72;;;19.84;67.30
59043;BME280;44826;51.596;5.624;2023-05-07T12:43:29;101593.28;;;19.76;67.31
59043;BME280;44826;51.596;5.624;2023-05-07T12:45:57;101593.69;;;19.68;66.26
59043;BME280;44826;51.596;5.624;2023-05-07T12:48:24;101602.00;;;19.61;70.64
59043;BME280;44826;51.596;5.624;2023-05-07T12:50:55;101602.56;;;19.50;71.21
59043;BME280;44826;51.596;5.624;2023-05-07T12:53:22;101605.59;;;19.42;73.29
59043;BME280;44826;51.596;5.624;2023-05-07T12:55:50;101608.63;;;19.34;73.67
59043;BME280;44826;51.596;5.624;2023-05-07T12:58:20;101612.41;;;19.29;73.29
59043;BME280;44826;51.596;5.624;2023-05-07T13:00:48;101616.13;;;19.24;74.95
59043;BME280;44826;51.596;5.624;2023-05-07T13:03:21;101617.31;;;19.19;74.54
59043;BME280;44826;51.596;5.624;2023-05-07T13:05:48;101623.72;;;19.13;75.86